Time;durP1;ratioP1;P1;durP2;ratioP2;P2;SDS_P1;SDS_P2;PMS_P1;PMS_P2;Temp;Humidity;BMP_temperature;BMP_pressure;BME280_temperature;BME280_humidity;BME280_pressure;Samples;Min_cycle;Max_cycle;Signal;HPM_P1;HPM_P2
2021/09/06 00:03:28;;;;;;;6.1;3.7;;;;;;;5.9;100;99480.59;;;;
2021/09/06 00:13:27;;;;;;;6.2;3.5;;;;;;;5.8;100;99482.34;;;;
2021/09/06 00:23:25;;;;;;;5.8;3.1;;;;;;;5.7;100;99475.05;;;;
2021/09/06 00:33:23;;;;;;;4.6;3;;;;;;;5.57;100;99480.81;;;;
2021/09/06 00:43:22;;;;;;;10;3.5;;;;;;;5.41;100;99479.05;;;;
2021/09/06 00:53:20;;;;;;;6.4;3.5;;;;;;;5.27;100;99478.64;;;;
2021/09/06 01:03:19;;;;;;;5.2;3;;;;;;;5.16;100;99476.91;;;;
2021/09/06 01:13:17;;;;;;;5.3;3.7;;;;;;;5.03;100;99483.42;;;;
2021/09/06 01:23:15;;;;;;;8.9;5.1;;;;;;;4.91;100;99469.41;;;;
2021/09/06 01:33:15;;;;;;;7.9;3.6;;;;;;;4.81;100;99473.81;;;;
2021/09/06 01:43:12;;;;;;;13.8;4.1;;;;;;;4.72;100;99477.98;;;;
2021/09/06 01:53:11;;;;;;;5;3;;;;;;;4.58;100;99479.39;;;;
2021/09/06 02:03:15;;;;;;;8.1;3.8;;;;;;;4.54;100;99505.77;;;;
2021/09/06 02:13:06;;;;;;;7.4;4.4;;;;;;;4.51;100;99498.25;;;;
2021/09/06 02:23:05;;;;;;;7;3.7;;;;;;;4.44;100;99505.63;;;;
2021/09/06 02:33:03;;;;;;;7;3.6;;;;;;;4.31;100;99495.27;;;;
2021/09/06 02:43:01;;;;;;;8.3;3.3;;;;;;;4.25;100;99504.25;;;;
2021/09/06 02:52:59;;;;;;;6.8;3.4;;;;;;;4.27;100;99507.51;;;;
2021/09/06 03:02:57;;;;;;;7.1;3.8;;;;;;;4.35;100;99496.41;;;;
2021/09/06 03:12:56;;;;;;;7.9;3.8;;;;;;;4.28;100;99495.76;;;;
2021/09/06 03:22:54;;;;;;;6.3;3.5;;;;;;;4.25;100;99496.25;;;;
2021/09/06 03:32:52;;;;;;;8.7;5.4;;;;;;;4.27;100;99488.83;;;;
2021/09/06 03:42:50;;;;;;;6.5;4.1;;;;;;;4.26;100;99501.36;;;;
2021/09/06 03:52:48;;;;;;;7.8;3.9;;;;;;;4.26;100;99504.02;;;;
2021/09/06 04:02:47;;;;;;;7.5;3.3;;;;;;;4.15;100;99504.1;;;;
2021/09/06 04:12:45;;;;;;;6.4;3.6;;;;;;;4.08;100;99500.78;;;;
2021/09/06 04:22:43;;;;;;;6.2;4.4;;;;;;;4.18;100;99514.28;;;;
2021/09/06 04:32:41;;;;;;;6;4.5;;;;;;;4.49;100;99513.69;;;;
2021/09/06 04:42:40;;;;;;;7.6;4.8;;;;;;;4.77;100;99516.22;;;;
2021/09/06 04:52:38;;;;;;;11.8;4.6;;;;;;;5.04;100;99517.11;;;;
2021/09/06 05:02:36;;;;;;;8;4.8;;;;;;;5.39;100;99515.91;;;;
2021/09/06 05:12:35;;;;;;;8.7;3.8;;;;;;;5.9;100;99519.94;;;;
2021/09/06 05:22:33;;;;;;;11.2;6;;;;;;;6.38;100;99527.83;;;;
2021/09/06 05:32:32;;;;;;;5.6;4;;;;;;;6.84;100;99536.13;;;;
2021/09/06 05:42:30;;;;;;;5.7;4.4;;;;;;;7.3;100;99529.11;;;;
2021/09/06 05:52:29;;;;;;;8.9;4.9;;;;;;;7.74;100;99532.2;;;;
2021/09/06 06:02:27;;;;;;;8.6;5.1;;;;;;;8.09;100;99533.03;;;;
2021/09/06 06:12:28;;;;;;;6.8;4.5;;;;;;;8.64;100;99539.5;;;;
2021/09/06 06:22:25;;;;;;;8.7;4.3;;;;;;;9.09;100;99525.91;;;;
2021/09/06 06:32:24;;;;;;;4.9;4.1;;;;;;;9.59;100;99526.77;;;;
2021/09/06 06:42:23;;;;;;;7.2;4.9;;;;;;;9.96;100;99537.05;;;;
2021/09/06 06:52:22;;;;;;;8;4.8;;;;;;;10.57;100;99546.28;;;;
2021/09/06 07:02:21;;;;;;;6.1;3.5;;;;;;;11.12;100;99562.97;;;;
2021/09/06 07:12:20;;;;;;;8.3;4.9;;;;;;;11.63;100;99568.55;;;;
2021/09/06 07:22:19;;;;;;;5.6;3.7;;;;;;;11.88;100;99580.94;;;;
2021/09/06 07:32:18;;;;;;;7.1;4.2;;;;;;;12.32;100;99594.88;;;;
2021/09/06 07:42:18;;;;;;;11.1;4.7;;;;;;;12.77;100;99597.95;;;;
2021/09/06 07:52:18;;;;;;;6.8;3.6;;;;;;;13.13;100;99598.13;;;;
2021/09/06 08:02:18;;;;;;;6.9;3.3;;;;;;;13.71;100;99607.25;;;;
2021/09/06 08:12:22;;;;;;;9.2;5.5;;;;;;;14.22;100;99592.59;;;;
2021/09/06 08:22:18;;;;;;;7.5;3.1;;;;;;;14.56;100;99590.17;;;;
2021/09/06 08:32:18;;;;;;;6.3;3;;;;;;;14.77;100;99593.98;;;;
2021/09/06 08:42:18;;;;;;;4.1;2;;;;;;;15;100;99606.41;;;;
2021/09/06 08:52:13;;;;;;;4.9;2.5;;;;;;;15.28;100;99617.07;;;;
2021/09/06 09:02:13;;;;;;;3.5;1.6;;;;;;;15.33;100;99615.04;;;;
2021/09/06 09:12:12;;;;;;;5.6;2.3;;;;;;;15.57;100;99615.48;;;;
2021/09/06 09:22:12;;;;;;;4.4;1.7;;;;;;;15.7;100;99613.74;;;;
2021/09/06 09:32:12;;;;;;;4.7;1.7;;;;;;;16.05;100;99604.54;;;;
2021/09/06 09:42:12;;;;;;;3.2;1.6;;;;;;;16.29;100;99600.54;;;;
2021/09/06 09:52:11;;;;;;;157.8;120.8;;;;;;;15.98;100;99596.05;;;;
2021/09/06 10:02:11;;;;;;;79.9;63.3;;;;;;;16.3;100;99589.35;;;;
2021/09/06 10:12:11;;;;;;;9.5;5.4;;;;;;;16.42;100;99581.33;;;;
2021/09/06 10:22:11;;;;;;;5.7;2.7;;;;;;;17.17;100;99570.95;;;;
2021/09/06 10:32:15;;;;;;;3.3;1.2;;;;;;;17.2;95.49219;99567.56;;;;
2021/09/06 10:42:10;;;;;;;5.4;2.3;;;;;;;17.53;95.0293;99568.51;;;;
2021/09/06 10:52:10;;;;;;;5.2;2.1;;;;;;;17.68;88.15234;99561.72;;;;
2021/09/06 11:02:11;;;;;;;3.4;1.8;;;;;;;17.59;82.89648;99559.06;;;;
2021/09/06 11:12:11;;;;;;;3.1;1.5;;;;;;;17.76;77.49707;99555.43;;;;
2021/09/06 11:22:10;;;;;;;3.7;2.1;;;;;;;17.67;76.91895;99546.52;;;;
2021/09/06 11:32:10;;;;;;;3.3;1.5;;;;;;;18.16;74.07715;99548.38;;;;
2021/09/06 11:42:10;;;;;;;3.4;1.6;;;;;;;18.26;68.03125;99528.86;;;;
2021/09/06 11:52:10;;;;;;;6.5;1.3;;;;;;;17.9;65.13379;99524.05;;;;
2021/09/06 12:02:10;;;;;;;2.8;1.2;;;;;;;17.96;64.99121;99514.53;;;;
2021/09/06 12:12:10;;;;;;;3.6;2.1;;;;;;;18.07;67.67871;99514.92;;;;
2021/09/06 12:22:10;;;;;;;3.1;1.5;;;;;;;18.18;68.54688;99504.39;;;;
2021/09/06 12:32:10;;;;;;;3.1;1.1;;;;;;;18.37;69.16406;99491.03;;;;
2021/09/06 12:42:10;;;;;;;6.6;2;;;;;;;18.64;69.0332;99481.48;;;;
2021/09/06 12:52:10;;;;;;;6.9;1.8;;;;;;;18.7;64.18848;99475.46;;;;
2021/09/06 13:02:10;;;;;;;2.8;1.5;;;;;;;18.77;65.19043;99472.17;;;;
2021/09/06 13:12:10;;;;;;;3.1;1.3;;;;;;;19.08;59.80664;99467.75;;;;
2021/09/06 13:22:11;;;;;;;3.4;1.7;;;;;;;18.89;63.69629;99472.96;;;;
2021/09/06 13:32:11;;;;;;;4.7;1.6;;;;;;;19.05;59.61816;99471.14;;;;
2021/09/06 13:42:11;;;;;;;7.3;2;;;;;;;19.47;61.33984;99468.2;;;;
2021/09/06 13:52:11;;;;;;;2.5;1.2;;;;;;;19.67;62.92871;99461.77;;;;
2021/09/06 14:02:11;;;;;;;3.8;1.5;;;;;;;19.76;60.01367;99462.41;;;;
2021/09/06 14:12:14;;;;;;;5.5;1.8;;;;;;;19.76;54.58984;99459.67;;;;
2021/09/06 14:22:12;;;;;;;4.5;2;;;;;;;20;54.85156;99462.33;;;;
2021/09/06 14:32:12;;;;;;;4.6;2.1;;;;;;;19.93;60.23242;99464.06;;;;
2021/09/06 14:42:12;;;;;;;3.4;1.9;;;;;;;20.07;60.00879;99450.78;;;;
2021/09/06 14:52:12;;;;;;;3.7;1.8;;;;;;;19.99;68.73535;99444.3;;;;
2021/09/06 15:02:13;;;;;;;5;1.5;;;;;;;20.32;63.98242;99437.8;;;;
2021/09/06 15:12:13;;;;;;;5;1.4;;;;;;;22.44;56.79492;99439.84;;;;
2021/09/06 15:22:13;;;;;;;4.5;1.5;;;;;;;24.43;47.25293;99438.78;;;;
2021/09/06 15:32:14;;;;;;;3.8;1.6;;;;;;;25.33;44.72266;99445.45;;;;
2021/09/06 15:42:18;;;;;;;4.7;2.5;;;;;;;25.92;41.19336;99438.69;;;;
2021/09/06 15:52:19;;;;;;;4.1;1.7;;;;;;;27;39.00684;99428.2;;;;
2021/09/06 16:02:19;;;;;;;3.9;1.9;;;;;;;26.65;38.24219;99422.67;;;;
2021/09/06 16:12:19;;;;;;;16.3;14.6;;;;;;;26.35;38.4541;99427.75;;;;
2021/09/06 16:22:22;;;;;;;35.3;22.3;;;;;;;26.11;37.16699;99428.45;;;;
2021/09/06 16:32:21;;;;;;;42.5;20.3;;;;;;;25.12;39.32813;99427.96;;;;
2021/09/06 16:42:22;;;;;;;14.5;8.5;;;;;;;22.57;46.88281;99420.06;;;;
2021/09/06 16:52:23;;;;;;;7.8;3.1;;;;;;;20.22;53.68066;99399.95;;;;
2021/09/06 17:02:23;;;;;;;11.1;3;;;;;;;18.35;62.48926;99411.44;;;;
2021/09/06 17:12:23;;;;;;;7;3.4;;;;;;;16.72;73.74414;99402.63;;;;
2021/09/06 17:22:23;;;;;;;8;4.9;;;;;;;15.5;90.90527;99392.34;;;;
2021/09/06 17:32:23;;;;;;;7.4;5.3;;;;;;;14.47;98.1582;99402.94;;;;
2021/09/06 17:42:22;;;;;;;17.9;7.7;;;;;;;13.87;100;99405.31;;;;
2021/09/06 17:52:23;;;;;;;11.9;8.6;;;;;;;13.43;100;99397.95;;;;
2021/09/06 18:02:21;;;;;;;25.2;14.1;;;;;;;12.79;100;99419.91;;;;
2021/09/06 18:12:21;;;;;;;13.7;10.5;;;;;;;12.42;100;99423.61;;;;
2021/09/06 18:22:23;;;;;;;10.2;7;;;;;;;12.14;100;99416.55;;;;
2021/09/06 18:32:19;;;;;;;20.7;17.1;;;;;;;11.71;100;99413.21;;;;
2021/09/06 18:42:19;;;;;;;15.6;11.8;;;;;;;11.49;100;99425.38;;;;
2021/09/06 18:52:19;;;;;;;10.4;7.3;;;;;;;11.24;100;99431.16;;;;
2021/09/06 19:02:19;;;;;;;17.3;8.3;;;;;;;10.93;100;99433.43;;;;
2021/09/06 19:12:19;;;;;;;13.4;8.8;;;;;;;10.72;100;99418.63;;;;
2021/09/06 19:22:19;;;;;;;18.6;10.4;;;;;;;10.6;100;99426.3;;;;
2021/09/06 19:32:14;;;;;;;13.4;10.6;;;;;;;10.31;100;99429.02;;;;
2021/09/06 19:42:13;;;;;;;21.6;16.7;;;;;;;9.91;100;99429.38;;;;
2021/09/06 19:52:12;;;;;;;21;12.4;;;;;;;9.49;100;99436.14;;;;
2021/09/06 20:02:11;;;;;;;15.7;12.3;;;;;;;9.13;100;99445.48;;;;
2021/09/06 20:12:10;;;;;;;19.5;10.9;;;;;;;8.81;100;99440.55;;;;
2021/09/06 20:22:08;;;;;;;14.7;10.9;;;;;;;8.57;100;99452.99;;;;
2021/09/06 20:32:07;;;;;;;21.4;12.9;;;;;;;8.36;100;99456.8;;;;
2021/09/06 20:42:06;;;;;;;11.2;9.5;;;;;;;8.23;100;99442;;;;
2021/09/06 20:52:05;;;;;;;13.3;11.4;;;;;;;8.1;100;99438;;;;
2021/09/06 21:02:03;;;;;;;17.9;10.8;;;;;;;7.9;100;99443.39;;;;
2021/09/06 21:12:02;;;;;;;17.6;13.1;;;;;;;7.72;100;99443.91;;;;
2021/09/06 21:22:01;;;;;;;17.4;12.1;;;;;;;7.63;100;99444.72;;;;
2021/09/06 21:31:59;;;;;;;17.9;10.2;;;;;;;7.55;100;99451.41;;;;
2021/09/06 21:41:58;;;;;;;21.7;10.2;;;;;;;7.32;100;99447.36;;;;
2021/09/06 21:51:56;;;;;;;10.5;9.4;;;;;;;7.14;100;99447.03;;;;
2021/09/06 22:01:55;;;;;;;15.1;10.7;;;;;;;7.04;100;99450.49;;;;
2021/09/06 22:11:54;;;;;;;21;10.9;;;;;;;6.97;100;99453.42;;;;
2021/09/06 22:21:52;;;;;;;15.1;11.8;;;;;;;7.03;100;99452.36;;;;
2021/09/06 22:31:50;;;;;;;14.1;10.3;;;;;;;6.95;100;99442.14;;;;
2021/09/06 22:41:49;;;;;;;15.4;11.1;;;;;;;6.8;100;99450.14;;;;
2021/09/06 22:51:47;;;;;;;13.7;11.1;;;;;;;6.7;100;99439.35;;;;
2021/09/06 23:01:46;;;;;;;13.1;11.7;;;;;;;6.67;100;99425.67;;;;
2021/09/06 23:11:44;;;;;;;14.5;10.1;;;;;;;6.56;100;99430.98;;;;
2021/09/06 23:21:43;;;;;;;21.6;13.7;;;;;;;6.56;100;99424.81;;;;
2021/09/06 23:31:41;;;;;;;19.1;11.4;;;;;;;6.5;100;99421.32;;;;
2021/09/06 23:41:40;;;;;;;13.6;12.1;;;;;;;6.52;100;99405.81;;;;
2021/09/06 23:51:38;;;;;;;13;10.9;;;;;;;6.45;100;99399.08;;;;
